Data Viewer
| City | State | Eastern Time | Source | Temp | DewPt | RH | BP | 5 Min Precip | Wind Speed | Wind Dir | 5 Min Wind Max | 5 Min Wind Max Dir |
|---|---|---|---|---|---|---|---|---|---|---|---|---|
| Piscataway 2 | NJ | 2026-05-02 23:40 | NJDOT | 52 | 27 | 37 | 7 | |||||
| Piscataway 2 | NJ | 2026-05-03 15:50 | NJDOT | 61 | 24 | 24 | 17 | |||||
| Piscataway 2 | NJ | 2026-05-03 14:45 | NJDOT | 59 | 24 | 25 | 16 | |||||
| Piscataway 2 | NJ | 2026-05-03 14:50 | NJDOT | 58 | 22 | 24 | 23 | |||||
| Piscataway 2 | NJ | 2026-05-03 15:00 | NJDOT | 58 | 23 | 28 | 20 | |||||
| Piscataway 2 | NJ | 2026-05-03 15:05 | NJDOT | 58 | 23 | 26 | 18 | |||||
| Piscataway 2 | NJ | 2026-05-03 15:10 | NJDOT | 59 | 23 | 25 | 17 | |||||
| Piscataway 2 | NJ | 2026-05-03 15:15 | NJDOT | 59 | 24 | 25 | 16 | |||||
| Piscataway 2 | NJ | 2026-05-03 15:20 | NJDOT | 60 | 24 | 25 | 19 | |||||
| Piscataway 2 | NJ | 2026-05-03 15:25 | NJDOT | 61 | 24 | 24 | 19 | |||||
| Piscataway 2 | NJ | 2026-05-03 15:30 | NJDOT | 60 | 22 | 23 | 18 | |||||
| Piscataway 2 | NJ | 2026-05-03 15:35 | NJDOT | 60 | 23 | 24 | 19 | |||||
| Piscataway 2 | NJ | 2026-05-03 15:40 | NJDOT | 59 | 22 | 24 | 19 | |||||
| Piscataway 2 | NJ | 2026-05-03 15:45 | NJDOT | 60 | 24 | 24 | 19 | |||||
| Piscataway 2 | NJ | 2026-05-03 16:00 | NJDOT | 60 | 24 | 23 | 17 | |||||
| Piscataway 2 | NJ | 2026-05-03 14:35 | NJDOT | 58 | 23 | 26 | 24 | |||||
| Piscataway 2 | NJ | 2026-05-03 16:05 | NJDOT | 60 | 23 | 23 | 16 | |||||
| Piscataway 2 | NJ | 2026-05-03 16:10 | NJDOT | 61 | 23 | 23 | 17 | |||||
| Piscataway 2 | NJ | 2026-05-03 16:15 | NJDOT | 61 | 22 | 22 | 20 | |||||
| Piscataway 2 | NJ | 2026-05-03 16:20 | NJDOT | 61 | 23 | 22 | 20 | |||||
| Piscataway 2 | NJ | 2026-05-03 16:25 | NJDOT | 60 | 22 | 23 | 23 | |||||
| Piscataway 2 | NJ | 2026-05-03 16:30 | NJDOT | 61 | 23 | 23 | 23 | |||||
| Piscataway 2 | NJ | 2026-05-03 16:35 | NJDOT | 62 | 25 | 23 | 18 | |||||
| Piscataway 2 | NJ | 2026-05-03 16:40 | NJDOT | 62 | 24 | 23 | 18 | |||||
| Piscataway 2 | NJ | 2026-05-03 16:45 | NJDOT | 62 | 26 | 25 | 18 | |||||
| Piscataway 2 | NJ | 2026-05-03 16:50 | NJDOT | 60 | 25 | 23 | 23 | |||||
| Piscataway 2 | NJ | 2026-05-03 17:00 | NJDOT | 62 | 24 | 24 | 14 | |||||
| Piscataway 2 | NJ | 2026-05-03 17:05 | NJDOT | 61 | 23 | 22 | 24 | |||||
| Piscataway 2 | NJ | 2026-05-03 17:10 | NJDOT | 61 | 23 | 23 | 24 | |||||
| Piscataway 2 | NJ | 2026-05-03 14:40 | NJDOT | 58 | 23 | 26 | 24 | |||||
| Piscataway 2 | NJ | 2026-05-03 14:30 | NJDOT | 58 | 24 | 26 | 19 | |||||
| Piscataway 2 | NJ | 2026-05-03 17:20 | NJDOT | 62 | 24 | 23 | 28 | |||||
| Piscataway 2 | NJ | 2026-05-03 13:05 | NJDOT | 54 | 26 | 33 | 17 | |||||
| Piscataway 2 | NJ | 2026-05-03 11:45 | NJDOT | 53 | 26 | 35 | 14 | |||||
| Piscataway 2 | NJ | 2026-05-03 11:50 | NJDOT | 53 | 25 | 33 | 14 | |||||
| Piscataway 2 | NJ | 2026-05-03 12:00 | NJDOT | 52 | 25 | 34 | 15 | |||||
| Piscataway 2 | NJ | 2026-05-03 12:05 | NJDOT | 53 | 25 | 33 | 15 | |||||
| Piscataway 2 | NJ | 2026-05-03 12:10 | NJDOT | 53 | 27 | 35 | 14 | |||||
| Piscataway 2 | NJ | 2026-05-03 12:15 | NJDOT | 53 | 26 | 34 | 16 | |||||
| Piscataway 2 | NJ | 2026-05-03 12:20 | NJDOT | 52 | 26 | 35 | 16 | |||||
| Piscataway 2 | NJ | 2026-05-03 12:25 | NJDOT | 53 | 25 | 32 | 20 | |||||
| Piscataway 2 | NJ | 2026-05-03 12:30 | NJDOT | 54 | 23 | 29 | 20 | |||||
| Piscataway 2 | NJ | 2026-05-03 12:35 | NJDOT | 53 | 23 | 30 | 18 | |||||
| Piscataway 2 | NJ | 2026-05-03 12:40 | NJDOT | 53 | 25 | 32 | 19 | |||||
| Piscataway 2 | NJ | 2026-05-03 12:45 | NJDOT | 53 | 25 | 33 | 19 | |||||
| Piscataway 2 | NJ | 2026-05-03 13:00 | NJDOT | 53 | 26 | 33 | 17 | |||||
| Piscataway 2 | NJ | 2026-05-03 13:10 | NJDOT | 55 | 28 | 34 | 17 | |||||
| Piscataway 2 | NJ | 2026-05-03 14:25 | NJDOT | 56 | 23 | 27 | 20 | |||||
| Piscataway 2 | NJ | 2026-05-03 13:15 | NJDOT | 55 | 25 | 31 | 23 | |||||
| Piscataway 2 | NJ | 2026-05-03 13:20 | NJDOT | 55 | 26 | 31 | 23 | |||||
| Piscataway 2 | NJ | 2026-05-03 13:25 | NJDOT | 55 | 25 | 30 | 20 | |||||
| Piscataway 2 | NJ | 2026-05-03 13:30 | NJDOT | 55 | 24 | 29 | 23 | |||||
| Piscataway 2 | NJ | 2026-05-03 13:35 | NJDOT | 55 | 24 | 30 | 23 | |||||
| Piscataway 2 | NJ | 2026-05-03 13:40 | NJDOT | 55 | 26 | 31 | 22 | |||||
| Piscataway 2 | NJ | 2026-05-03 13:45 | NJDOT | 57 | 24 | 35 | 22 | |||||
| Piscataway 2 | NJ | 2026-05-03 13:50 | NJDOT | 56 | 23 | 30 | 20 | |||||
| Piscataway 2 | NJ | 2026-05-03 14:00 | NJDOT | 56 | 25 | 28 | 18 | |||||
| Piscataway 2 | NJ | 2026-05-03 14:05 | NJDOT | 56 | 23 | 27 | 23 | |||||
| Piscataway 2 | NJ | 2026-05-03 14:10 | NJDOT | 56 | 24 | 28 | 23 | |||||
| Piscataway 2 | NJ | 2026-05-03 14:15 | NJDOT | 57 | 23 | 26 | 18 | |||||
| Piscataway 2 | NJ | 2026-05-03 14:20 | NJDOT | 57 | 22 | 25 | 20 | |||||
| Piscataway 2 | NJ | 2026-05-03 17:15 | NJDOT | 63 | 26 | 24 | 19 | |||||
| Piscataway 2 | NJ | 2026-05-03 17:25 | NJDOT | 62 | 24 | 23 | 28 | |||||
| Piscataway 2 | NJ | 2026-05-03 11:35 | NJDOT | 52 | 25 | 34 | 22 | |||||
| Piscataway 2 | NJ | 2026-05-03 22:15 | NJDOT | 53 | 30 | 40 | 5 | |||||
| Piscataway 2 | NJ | 2026-05-03 20:35 | NJDOT | 56 | 26 | 31 | 6 | |||||
| Piscataway 2 | NJ | 2026-05-03 20:40 | NJDOT | 55 | 28 | 35 | 6 | |||||
| Piscataway 2 | NJ | 2026-05-03 20:45 | NJDOT | 54 | 29 | 38 | 4 | |||||
| Piscataway 2 | NJ | 2026-05-03 20:50 | NJDOT | 53 | 31 | 42 | 4 | |||||
| Piscataway 2 | NJ | 2026-05-03 21:00 | NJDOT | 51 | 31 | 45 | 2 | |||||
| Piscataway 2 | NJ | 2026-05-03 21:05 | NJDOT | 50 | 30 | 45 | 1 | |||||
| Piscataway 2 | NJ | 2026-05-03 21:10 | NJDOT | 50 | 31 | 48 | 1 | |||||
| Piscataway 2 | NJ | 2026-05-03 21:15 | NJDOT | 49 | 31 | 48 | 1 | |||||
| Piscataway 2 | NJ | 2026-05-03 21:20 | NJDOT | 49 | 31 | 49 | 2 | |||||
| Piscataway 2 | NJ | 2026-05-03 22:00 | NJDOT | 51 | 29 | 42 | 6 | |||||
| Piscataway 2 | NJ | 2026-05-03 22:05 | NJDOT | 52 | 30 | 42 | 6 | |||||
| Piscataway 2 | NJ | 2026-05-03 22:10 | NJDOT | 53 | 30 | 41 | 6 | |||||
| Piscataway 2 | NJ | 2026-05-03 22:20 | NJDOT | 52 | 30 | 41 | 4 | |||||
| Piscataway 2 | NJ | 2026-05-03 20:25 | NJDOT | 57 | 28 | 32 | 5 | |||||
| Piscataway 2 | NJ | 2026-05-03 22:25 | NJDOT | 52 | 30 | 41 | 4 | |||||
| Piscataway 2 | NJ | 2026-05-03 22:30 | NJDOT | 50 | 32 | 48 | 4 | |||||
| Piscataway 2 | NJ | 2026-05-03 22:35 | NJDOT | 49 | 31 | 50 | 3 | |||||
| Piscataway 2 | NJ | 2026-05-03 22:40 | NJDOT | 48 | 32 | 54 | 3 | |||||
| Piscataway 2 | NJ | 2026-05-03 22:45 | NJDOT | 47 | 32 | 55 | 4 | |||||
| Piscataway 2 | NJ | 2026-05-03 22:50 | NJDOT | 47 | 31 | 54 | 4 | |||||
| Piscataway 2 | NJ | 2026-05-03 23:00 | NJDOT | 46 | 32 | 57 | 1 | |||||
| Piscataway 2 | NJ | 2026-05-03 23:05 | NJDOT | 46 | 32 | 58 | 1 | |||||
| Piscataway 2 | NJ | 2026-05-03 23:10 | NJDOT | 45 | 32 | 59 | 1 | |||||
| Piscataway 2 | NJ | 2026-05-03 23:15 | NJDOT | 45 | 31 | 58 | 3 | |||||
| Piscataway 2 | NJ | 2026-05-03 23:20 | NJDOT | 45 | 32 | 60 | 3 | |||||
| Piscataway 2 | NJ | 2026-05-03 23:25 | NJDOT | 45 | 33 | 61 | 2 | |||||
| Piscataway 2 | NJ | 2026-05-03 23:30 | NJDOT | 45 | 33 | 62 | 2 | |||||
| Piscataway 2 | NJ | 2026-05-03 20:30 | NJDOT | 56 | 27 | 31 | 6 | |||||
| Piscataway 2 | NJ | 2026-05-03 20:20 | NJDOT | 58 | 26 | 29 | 6 | |||||
| Piscataway 2 | NJ | 2026-05-03 17:30 | NJDOT | 62 | 23 | 22 | 19 | |||||
| Piscataway 2 | NJ | 2026-05-03 18:45 | NJDOT | 62 | 23 | 22 | 17 | |||||
| Piscataway 2 | NJ | 2026-05-03 17:35 | NJDOT | 62 | 24 | 22 | 19 | |||||
| Piscataway 2 | NJ | 2026-05-03 17:40 | NJDOT | 62 | 24 | 23 | 19 | |||||
| Piscataway 2 | NJ | 2026-05-03 17:45 | NJDOT | 62 | 25 | 23 | 19 | |||||
| Piscataway 2 | NJ | 2026-05-03 17:50 | NJDOT | 62 | 24 | 23 | 21 | |||||
| Piscataway 2 | NJ | 2026-05-03 18:00 | NJDOT | 62 | 23 | 22 | 18 | |||||
| Piscataway 2 | NJ | 2026-05-03 18:05 | NJDOT | 62 | 25 | 23 | 18 | |||||
| Piscataway 2 | NJ | 2026-05-03 18:10 | NJDOT | 62 | 24 | 22 | 14 | |||||
| Piscataway 2 | NJ | 2026-05-03 18:15 | NJDOT | 62 | 23 | 22 | 14 | |||||
| Piscataway 2 | NJ | 2026-05-03 18:20 | NJDOT | 62 | 24 | 22 | 13 | |||||
| Piscataway 2 | NJ | 2026-05-03 18:25 | NJDOT | 62 | 24 | 23 | 13 | |||||
| Piscataway 2 | NJ | 2026-05-03 18:30 | NJDOT | 62 | 24 | 23 | 14 | |||||
| Piscataway 2 | NJ | 2026-05-03 18:35 | NJDOT | 62 | 24 | 23 | 15 | |||||
| Piscataway 2 | NJ | 2026-05-03 18:40 | NJDOT | 61 | 24 | 23 | 17 | |||||
| Piscataway 2 | NJ | 2026-05-03 19:00 | NJDOT | 62 | 25 | 24 | 10 | |||||
| Piscataway 2 | NJ | 2026-05-03 20:15 | NJDOT | 58 | 27 | 30 | 7 | |||||
| Piscataway 2 | NJ | 2026-05-03 19:05 | NJDOT | 61 | 24 | 24 | 15 | |||||
| Piscataway 2 | NJ | 2026-05-03 19:10 | NJDOT | 61 | 24 | 23 | 15 | |||||
| Piscataway 2 | NJ | 2026-05-03 19:15 | NJDOT | 60 | 25 | 25 | 17 | |||||
| Piscataway 2 | NJ | 2026-05-03 19:20 | NJDOT | 60 | 25 | 25 | 17 | |||||
| Piscataway 2 | NJ | 2026-05-03 19:25 | NJDOT | 60 | 24 | 24 | 15 | |||||
| Piscataway 2 | NJ | 2026-05-03 19:30 | NJDOT | 60 | 24 | 24 | 15 | |||||
| Piscataway 2 | NJ | 2026-05-03 19:35 | NJDOT | 60 | 24 | 25 | 12 | |||||
| Piscataway 2 | NJ | 2026-05-03 19:40 | NJDOT | 60 | 25 | 26 | 1 | |||||
| Piscataway 2 | NJ | 2026-05-03 19:45 | NJDOT | 60 | 25 | 26 | 3 | |||||
| Piscataway 2 | NJ | 2026-05-03 19:50 | NJDOT | 60 | 25 | 26 | 3 | |||||
| Piscataway 2 | NJ | 2026-05-03 20:00 | NJDOT | 59 | 26 | 27 | 10 | |||||
| Piscataway 2 | NJ | 2026-05-03 20:05 | NJDOT | 59 | 27 | 28 | 9 | |||||
| Piscataway 2 | NJ | 2026-05-03 20:10 | NJDOT | 58 | 28 | 32 | 9 | |||||
| Piscataway 2 | NJ | 2026-05-03 11:40 | NJDOT | 53 | 26 | 35 | 22 | |||||
| Piscataway 2 | NJ | 2026-05-03 11:30 | NJDOT | 52 | 26 | 35 | 18 | |||||
| Piscataway 2 | NJ | 2026-05-02 23:45 | NJDOT | 52 | 27 | 37 | 7 | |||||
| Piscataway 2 | NJ | 2026-05-03 04:05 | NJDOT | 48 | 27 | 43 | 12 | |||||
| Piscataway 2 | NJ | 2026-05-03 03:00 | NJDOT | 49 | 27 | 41 | 9 | |||||
| Piscataway 2 | NJ | 2026-05-03 03:05 | NJDOT | 49 | 27 | 42 | 9 | |||||
| Piscataway 2 | NJ | 2026-05-03 03:10 | NJDOT | 49 | 27 | 42 | 8 | |||||
| Piscataway 2 | NJ | 2026-05-03 03:15 | NJDOT | 49 | 27 | 42 | 6 | |||||
| Piscataway 2 | NJ | 2026-05-03 03:20 | NJDOT | 48 | 27 | 42 | 9 | |||||
| Piscataway 2 | NJ | 2026-05-03 03:25 | NJDOT | 49 | 27 | 43 | 7 | |||||
| Piscataway 2 | NJ | 2026-05-03 03:30 | NJDOT | 48 | 27 | 43 | 4 | |||||
| Piscataway 2 | NJ | 2026-05-03 03:35 | NJDOT | 48 | 27 | 44 | 6 | |||||
| Piscataway 2 | NJ | 2026-05-03 03:40 | NJDOT | 48 | 27 | 44 | 6 | |||||
| Piscataway 2 | NJ | 2026-05-03 03:45 | NJDOT | 48 | 27 | 44 | 5 | |||||
| Piscataway 2 | NJ | 2026-05-03 03:50 | NJDOT | 48 | 28 | 45 | 5 | |||||
| Piscataway 2 | NJ | 2026-05-03 04:00 | NJDOT | 47 | 27 | 44 | 10 | |||||
| Piscataway 2 | NJ | 2026-05-03 04:10 | NJDOT | 48 | 27 | 43 | 12 | |||||
| Piscataway 2 | NJ | 2026-05-03 02:45 | NJDOT | 49 | 27 | 42 | 6 | |||||
| Piscataway 2 | NJ | 2026-05-03 04:15 | NJDOT | 47 | 27 | 43 | 10 | |||||
| Piscataway 2 | NJ | 2026-05-03 04:20 | NJDOT | 47 | 27 | 44 | 8 | |||||
| Piscataway 2 | NJ | 2026-05-03 04:25 | NJDOT | 47 | 27 | 45 | 7 | |||||
| Piscataway 2 | NJ | 2026-05-03 04:30 | NJDOT | 47 | 28 | 45 | 8 | |||||
| Piscataway 2 | NJ | 2026-05-03 04:35 | NJDOT | 47 | 28 | 46 | 8 | |||||
| Piscataway 2 | NJ | 2026-05-03 04:40 | NJDOT | 47 | 28 | 46 | 8 | |||||
| Piscataway 2 | NJ | 2026-05-03 04:45 | NJDOT | 47 | 28 | 46 | 8 | |||||
| Piscataway 2 | NJ | 2026-05-03 04:50 | NJDOT | 47 | 28 | 46 | 6 | |||||
| Piscataway 2 | NJ | 2026-05-03 05:00 | NJDOT | 47 | 27 | 45 | 14 | |||||
| Piscataway 2 | NJ | 2026-05-03 05:05 | NJDOT | 47 | 27 | 45 | 14 | |||||
| Piscataway 2 | NJ | 2026-05-03 05:10 | NJDOT | 47 | 26 | 44 | 11 | |||||
| Piscataway 2 | NJ | 2026-05-03 05:15 | NJDOT | 46 | 26 | 45 | 11 | |||||
| Piscataway 2 | NJ | 2026-05-03 05:20 | NJDOT | 46 | 27 | 45 | 10 | |||||
| Piscataway 2 | NJ | 2026-05-03 02:50 | NJDOT | 49 | 28 | 43 | 6 | |||||
| Piscataway 2 | NJ | 2026-05-03 02:40 | NJDOT | 49 | 27 | 41 | 6 | |||||
| Piscataway 2 | NJ | 2026-05-03 05:30 | NJDOT | 46 | 27 | 46 | 8 | |||||
| Piscataway 2 | NJ | 2026-05-03 01:15 | NJDOT | 51 | 27 | 39 | 3 | |||||
| Piscataway 2 | NJ | 2026-05-02 23:50 | NJDOT | 51 | 28 | 39 | 4 | |||||
| Piscataway 2 | NJ | 2026-05-03 00:00 | NJDOT | 51 | 27 | 38 | 4 | |||||
| Piscataway 2 | NJ | 2026-05-03 00:05 | NJDOT | 52 | 27 | 38 | 4 | |||||
| Piscataway 2 | NJ | 2026-05-03 00:10 | NJDOT | 51 | 27 | 38 | 4 | |||||
| Piscataway 2 | NJ | 2026-05-03 00:15 | NJDOT | 51 | 27 | 37 | 4 | |||||
| Piscataway 2 | NJ | 2026-05-03 00:20 | NJDOT | 52 | 28 | 39 | 4 | |||||
| Piscataway 2 | NJ | 2026-05-03 00:25 | NJDOT | 51 | 27 | 37 | 4 | |||||
| Piscataway 2 | NJ | 2026-05-03 00:30 | NJDOT | 51 | 27 | 38 | 3 | |||||
| Piscataway 2 | NJ | 2026-05-03 00:35 | NJDOT | 51 | 26 | 37 | 5 | |||||
| Piscataway 2 | NJ | 2026-05-03 00:40 | NJDOT | 51 | 27 | 38 | 6 | |||||
| Piscataway 2 | NJ | 2026-05-03 01:00 | NJDOT | 51 | 26 | 38 | 6 | |||||
| Piscataway 2 | NJ | 2026-05-03 01:05 | NJDOT | 51 | 27 | 38 | 6 | |||||
| Piscataway 2 | NJ | 2026-05-03 01:10 | NJDOT | 51 | 27 | 38 | 4 | |||||
| Piscataway 2 | NJ | 2026-05-03 01:20 | NJDOT | 51 | 27 | 39 | 4 | |||||
| Piscataway 2 | NJ | 2026-05-03 02:35 | NJDOT | 49 | 27 | 42 | 6 | |||||
| Piscataway 2 | NJ | 2026-05-03 01:25 | NJDOT | 51 | 28 | 40 | 6 | |||||
| Piscataway 2 | NJ | 2026-05-03 01:30 | NJDOT | 50 | 27 | 40 | 6 | |||||
| Piscataway 2 | NJ | 2026-05-03 01:35 | NJDOT | 50 | 27 | 40 | 4 | |||||
| Piscataway 2 | NJ | 2026-05-03 01:40 | NJDOT | 50 | 28 | 41 | 2 | |||||
| Piscataway 2 | NJ | 2026-05-03 01:45 | NJDOT | 50 | 27 | 40 | 4 | |||||
| Piscataway 2 | NJ | 2026-05-03 01:50 | NJDOT | 50 | 28 | 42 | 4 | |||||
| Piscataway 2 | NJ | 2026-05-03 02:00 | NJDOT | 49 | 29 | 45 | 2 | |||||
| Piscataway 2 | NJ | 2026-05-03 02:05 | NJDOT | 49 | 28 | 42 | 3 | |||||
| Piscataway 2 | NJ | 2026-05-03 02:10 | NJDOT | 49 | 27 | 41 | 3 | |||||
| Piscataway 2 | NJ | 2026-05-03 02:15 | NJDOT | 49 | 29 | 45 | 3 | |||||
| Piscataway 2 | NJ | 2026-05-03 02:20 | NJDOT | 49 | 27 | 41 | 5 | |||||
| Piscataway 2 | NJ | 2026-05-03 02:25 | NJDOT | 49 | 27 | 40 | 6 | |||||
| Piscataway 2 | NJ | 2026-05-03 02:30 | NJDOT | 49 | 27 | 42 | 6 | |||||
| Piscataway 2 | NJ | 2026-05-03 05:25 | NJDOT | 46 | 27 | 46 | 8 | |||||
| Piscataway 2 | NJ | 2026-05-03 05:35 | NJDOT | 46 | 27 | 46 | 9 | |||||
| Piscataway 2 | NJ | 2026-05-03 11:25 | NJDOT | 53 | 26 | 35 | 14 | |||||
| Piscataway 2 | NJ | 2026-05-03 10:05 | NJDOT | 51 | 26 | 38 | 18 | |||||
| Piscataway 2 | NJ | 2026-05-03 09:00 | NJDOT | 49 | 29 | 44 | 15 | |||||
| Piscataway 2 | NJ | 2026-05-03 09:05 | NJDOT | 49 | 29 | 44 | 16 | |||||
| Piscataway 2 | NJ | 2026-05-03 09:10 | NJDOT | 50 | 29 | 44 | 16 | |||||
| Piscataway 2 | NJ | 2026-05-03 09:15 | NJDOT | 50 | 29 | 44 | 13 | |||||
| Piscataway 2 | NJ | 2026-05-03 09:20 | NJDOT | 50 | 28 | 43 | 15 | |||||
| Piscataway 2 | NJ | 2026-05-03 09:25 | NJDOT | 50 | 28 | 42 | 15 | |||||
| Piscataway 2 | NJ | 2026-05-03 09:30 | NJDOT | 50 | 28 | 41 | 15 | |||||
| Piscataway 2 | NJ | 2026-05-03 09:35 | NJDOT | 51 | 29 | 42 | 15 | |||||
| Piscataway 2 | NJ | 2026-05-03 09:40 | NJDOT | 50 | 28 | 41 | 13 | |||||
| Piscataway 2 | NJ | 2026-05-03 09:45 | NJDOT | 51 | 28 | 40 | 14 | |||||
| Piscataway 2 | NJ | 2026-05-03 09:50 | NJDOT | 51 | 28 | 39 | 15 | |||||
| Piscataway 2 | NJ | 2026-05-03 10:00 | NJDOT | 51 | 26 | 37 | 20 | |||||
| Piscataway 2 | NJ | 2026-05-03 10:10 | NJDOT | 52 | 28 | 39 | 18 | |||||
| Piscataway 2 | NJ | 2026-05-03 08:45 | NJDOT | 47 | 28 | 46 | 17 | |||||
| Piscataway 2 | NJ | 2026-05-03 10:15 | NJDOT | 53 | 29 | 38 | 18 | |||||
| Piscataway 2 | NJ | 2026-05-03 10:20 | NJDOT | 51 | 26 | 37 | 15 | |||||
| Piscataway 2 | NJ | 2026-05-03 10:25 | NJDOT | 53 | 27 | 36 | 16 | |||||
| Piscataway 2 | NJ | 2026-05-03 10:30 | NJDOT | 52 | 26 | 35 | 17 | |||||
| Piscataway 2 | NJ | 2026-05-03 10:35 | NJDOT | 51 | 26 | 37 | 18 | |||||
| Piscataway 2 | NJ | 2026-05-03 10:40 | NJDOT | 51 | 26 | 38 | 18 | |||||
| Piscataway 2 | NJ | 2026-05-03 10:45 | NJDOT | 51 | 27 | 39 | 17 | |||||
| Piscataway 2 | NJ | 2026-05-03 10:50 | NJDOT | 51 | 26 | 37 | 15 | |||||
| Piscataway 2 | NJ | 2026-05-03 11:00 | NJDOT | 52 | 27 | 36 | 14 | |||||
| Piscataway 2 | NJ | 2026-05-03 11:05 | NJDOT | 52 | 26 | 35 | 16 | |||||
| Piscataway 2 | NJ | 2026-05-03 11:10 | NJDOT | 52 | 25 | 34 | 18 | |||||
| Piscataway 2 | NJ | 2026-05-03 11:15 | NJDOT | 53 | 26 | 34 | 18 | |||||
| Piscataway 2 | NJ | 2026-05-03 11:20 | NJDOT | 52 | 26 | 35 | 14 | |||||
| Piscataway 2 | NJ | 2026-05-03 08:50 | NJDOT | 48 | 29 | 47 | 17 | |||||
| Piscataway 2 | NJ | 2026-05-03 08:40 | NJDOT | 47 | 29 | 47 | 12 | |||||
| Piscataway 2 | NJ | 2026-05-03 05:40 | NJDOT | 46 | 27 | 46 | 9 | |||||
| Piscataway 2 | NJ | 2026-05-03 07:15 | NJDOT | 46 | 28 | 51 | 14 | |||||
| Piscataway 2 | NJ | 2026-05-03 05:45 | NJDOT | 46 | 27 | 47 | 8 | |||||
| Piscataway 2 | NJ | 2026-05-03 05:50 | NJDOT | 46 | 27 | 47 | 8 | |||||
| Piscataway 2 | NJ | 2026-05-03 06:00 | NJDOT | 46 | 27 | 47 | 14 | |||||
| Piscataway 2 | NJ | 2026-05-03 06:05 | NJDOT | 46 | 27 | 48 | 12 | |||||
| Piscataway 2 | NJ | 2026-05-03 06:10 | NJDOT | 46 | 28 | 48 | 14 | |||||
| Piscataway 2 | NJ | 2026-05-03 06:15 | NJDOT | 46 | 28 | 48 | 14 | |||||
| Piscataway 2 | NJ | 2026-05-03 06:20 | NJDOT | 45 | 27 | 49 | 13 | |||||
| Piscataway 2 | NJ | 2026-05-03 06:25 | NJDOT | 45 | 28 | 49 | 13 | |||||
| Piscataway 2 | NJ | 2026-05-03 06:30 | NJDOT | 45 | 28 | 49 | 11 | |||||
| Piscataway 2 | NJ | 2026-05-03 06:40 | NJDOT | 45 | 28 | 49 | 17 | |||||
| Piscataway 2 | NJ | 2026-05-03 07:00 | NJDOT | 46 | 29 | 51 | 10 | |||||
| Piscataway 2 | NJ | 2026-05-03 07:05 | NJDOT | 46 | 28 | 50 | 12 | |||||
| Piscataway 2 | NJ | 2026-05-03 07:10 | NJDOT | 46 | 28 | 50 | 13 | |||||
| Piscataway 2 | NJ | 2026-05-03 07:20 | NJDOT | 46 | 29 | 51 | 14 | |||||
| Piscataway 2 | NJ | 2026-05-03 08:35 | NJDOT | 48 | 29 | 47 | 14 | |||||
| Piscataway 2 | NJ | 2026-05-03 07:25 | NJDOT | 46 | 29 | 51 | 12 | |||||
| Piscataway 2 | NJ | 2026-05-03 07:30 | NJDOT | 46 | 28 | 50 | 11 | |||||
| Piscataway 2 | NJ | 2026-05-03 07:35 | NJDOT | 46 | 29 | 51 | 11 | |||||
| Piscataway 2 | NJ | 2026-05-03 07:40 | NJDOT | 46 | 29 | 51 | 10 | |||||
| Piscataway 2 | NJ | 2026-05-03 07:45 | NJDOT | 46 | 30 | 52 | 10 | |||||
| Piscataway 2 | NJ | 2026-05-03 07:50 | NJDOT | 46 | 29 | 51 | 10 | |||||
| Piscataway 2 | NJ | 2026-05-03 08:00 | NJDOT | 46 | 29 | 51 | 14 | |||||
| Piscataway 2 | NJ | 2026-05-03 08:05 | NJDOT | 46 | 29 | 50 | 11 | |||||
| Piscataway 2 | NJ | 2026-05-03 08:10 | NJDOT | 46 | 29 | 50 | 12 | |||||
| Piscataway 2 | NJ | 2026-05-03 08:15 | NJDOT | 46 | 28 | 49 | 12 | |||||
| Piscataway 2 | NJ | 2026-05-03 08:20 | NJDOT | 47 | 29 | 49 | 14 | |||||
| Piscataway 2 | NJ | 2026-05-03 08:25 | NJDOT | 47 | 29 | 48 | 14 | |||||
| Piscataway 2 | NJ | 2026-05-03 08:30 | NJDOT | 47 | 29 | 48 | 12 | |||||
| Piscataway 2 | NJ | 2026-05-03 23:35 | NJDOT | 44 | 32 | 62 | 2 |
data collection created in 0.033295869827271 (queried in 0.007664) rendered in: 0.0004420280456543

